createdAt,value
2019-04-22T00:19:45.623Z,5.50
2019-04-22T00:22:03.325Z,7.13
2019-04-22T00:24:27.408Z,6.70
2019-04-22T00:26:58.971Z,5.90
2019-04-22T00:29:50.205Z,4.87
2019-04-22T00:32:05.525Z,4.60
2019-04-22T00:34:42.603Z,4.07
2019-04-22T00:37:17.197Z,4.20
2019-04-22T00:39:46.506Z,4.10
2019-04-22T00:42:18.110Z,3.60
2019-04-22T00:44:55.872Z,3.33
2019-04-22T00:47:23.282Z,3.87
2019-04-22T00:52:23.787Z,3.67
2019-04-22T00:54:59.409Z,3.10
2019-04-22T00:57:21.709Z,3.50
2019-04-22T00:59:53.129Z,3.10
2019-04-22T01:02:27.433Z,3.00
2019-04-22T01:04:54.969Z,3.30
2019-04-22T01:07:23.837Z,2.57
2019-04-22T01:09:58.675Z,3.40
2019-04-22T01:12:28.430Z,3.00
2019-04-22T01:15:05.785Z,2.60
2019-04-22T01:17:34.265Z,3.17
2019-04-22T01:20:13.592Z,3.40
2019-04-22T01:22:30.338Z,2.83
2019-04-22T01:25:02.222Z,2.97
2019-04-22T01:27:31.077Z,3.10
2019-04-22T01:29:59.707Z,3.20
2019-04-22T01:32:22.711Z,2.93
2019-04-22T01:34:57.994Z,3.17
2019-04-22T01:37:36.168Z,3.13
2019-04-22T01:40:09.880Z,2.80
2019-04-22T01:42:53.550Z,3.57
2019-04-22T01:45:22.726Z,3.07
2019-04-22T01:47:43.870Z,3.10
2019-04-22T01:50:21.367Z,3.47
2019-04-22T01:52:53.159Z,2.93
2019-04-22T01:55:24.831Z,2.93
2019-04-22T01:57:47.795Z,2.63
2019-04-22T02:00:11.568Z,3.00
2019-04-22T02:02:49.295Z,2.90
2019-04-22T02:07:56.175Z,3.20
2019-04-22T02:10:32.286Z,3.47
2019-04-22T02:12:54.078Z,3.53
2019-04-22T02:15:23.800Z,2.80
2019-04-22T02:18:02.361Z,3.73
2019-04-22T02:20:31.560Z,2.80
2019-04-22T02:26:01.247Z,3.70
2019-04-22T02:36:16.726Z,3.37
2019-04-22T02:38:51.336Z,3.83
2019-04-22T02:41:22.860Z,4.10
2019-04-22T02:43:55.345Z,4.27
2019-04-22T02:48:53.282Z,3.93
2019-04-22T02:54:17.203Z,3.53
2019-04-22T03:01:23.512Z,3.63
2019-04-22T03:13:55.942Z,3.90
2019-04-22T03:16:29.440Z,5.17
2019-04-22T03:19:02.436Z,3.60
2019-04-22T03:24:08.501Z,4.20
2019-04-22T03:28:58.685Z,4.30
2019-04-22T06:04:22.021Z,4.28
2019-04-22T06:06:53.584Z,4.50
2019-04-22T06:09:43.354Z,4.90
2019-04-22T06:11:55.533Z,4.47
2019-04-22T06:14:25.883Z,4.30
2019-04-22T06:17:03.645Z,3.93
2019-04-22T06:19:31.878Z,4.17
2019-04-22T06:22:07.100Z,3.40
2019-04-22T06:24:31.222Z,5.30
2019-04-22T06:29:36.522Z,3.80
2019-04-22T06:32:23.328Z,4.27
2019-04-22T06:34:45.184Z,3.90
2019-04-22T06:37:13.405Z,3.40
2019-04-22T06:39:36.907Z,4.53
2019-04-22T06:42:15.005Z,3.90
2019-04-22T06:44:48.750Z,5.00
2019-04-22T06:47:25.096Z,4.40
2019-04-22T06:49:49.273Z,4.90
2019-04-22T06:54:50.497Z,4.53
2019-04-22T06:57:24.251Z,4.50
2019-04-22T06:59:53.763Z,4.00
2019-04-22T07:02:24.018Z,3.93
2019-04-22T07:04:51.997Z,4.50
2019-04-22T07:07:24.040Z,4.13
2019-04-22T07:09:54.311Z,4.00
2019-04-22T07:19:53.283Z,4.20
2019-04-22T07:27:44.080Z,5.10
2019-04-22T07:30:03.874Z,4.17
2019-04-22T07:33:00.648Z,4.37
2019-04-22T07:35:01.459Z,4.53
2019-04-22T07:39:56.839Z,4.37
2019-04-22T07:45:08.461Z,4.75
2019-04-22T07:47:38.320Z,5.03
2019-04-22T07:50:07.182Z,4.43
2019-04-22T07:52:35.394Z,4.40
2019-04-22T09:12:49.597Z,4.60
2019-04-22T09:14:57.797Z,4.30
2019-04-22T09:17:36.279Z,3.70
2019-04-22T09:20:11.356Z,4.30
2019-04-22T09:22:36.275Z,4.47
2019-04-22T09:25:03.888Z,4.40
2019-04-22T09:27:39.858Z,3.87
2019-04-22T09:30:04.965Z,3.83
2019-04-22T09:32:44.834Z,4.73
2019-04-22T09:35:24.792Z,4.80
2019-04-22T09:37:50.310Z,4.20
2019-04-22T09:40:15.642Z,4.50
2019-04-22T09:42:43.826Z,5.00
2019-04-22T09:45:11.639Z,3.97
2019-04-22T09:47:52.022Z,3.87
2019-04-22T09:50:22.618Z,4.27
2019-04-22T09:52:51.547Z,4.10
2019-04-22T09:55:19.738Z,5.67
2019-04-22T09:57:46.294Z,5.03
2019-04-22T10:00:13.928Z,4.57
2019-04-22T10:02:59.248Z,5.40
2019-04-22T10:05:20.889Z,4.20
2019-04-22T10:07:54.466Z,4.43
2019-04-22T10:42:51.399Z,4.03
2019-04-22T10:45:21.956Z,4.63
2019-04-22T10:47:52.253Z,4.17
2019-04-22T10:50:24.751Z,5.20
2019-04-22T10:52:55.255Z,4.60
2019-04-22T10:55:25.424Z,4.90
2019-04-22T10:57:55.024Z,4.20
2019-04-22T11:00:24.063Z,4.70
2019-04-22T11:02:53.886Z,4.80
2019-04-22T11:05:24.073Z,4.47
2019-04-22T11:07:57.922Z,4.47
2019-04-22T11:10:36.884Z,3.97
2019-04-22T11:12:56.788Z,4.23
2019-04-22T11:15:26.606Z,3.77
2019-04-22T11:17:55.799Z,3.57
2019-04-22T11:20:25.936Z,4.30
2019-04-22T11:22:56.364Z,3.60
2019-04-22T11:25:25.737Z,3.93
2019-04-22T11:27:55.782Z,3.70
2019-04-22T11:30:27.978Z,4.27
2019-04-22T11:32:56.327Z,4.57
2019-04-22T11:35:25.797Z,4.63
2019-04-22T11:37:55.023Z,3.50
2019-04-22T11:40:32.645Z,3.77
2019-04-22T11:42:56.510Z,3.10
2019-04-22T11:45:27.069Z,3.67
2019-04-22T11:47:57.265Z,3.20
2019-04-22T11:50:28.122Z,4.17
2019-04-22T11:52:58.596Z,4.07
2019-04-22T11:55:28.747Z,3.87
2019-04-22T11:57:58.923Z,4.03
2019-04-22T12:00:34.766Z,3.70
2019-04-22T12:03:05.151Z,3.80
2019-04-22T12:05:34.680Z,3.30
2019-04-22T12:08:05.008Z,3.67
2019-04-22T12:10:42.442Z,3.47
2019-04-22T12:13:24.294Z,3.40
2019-04-22T12:15:53.436Z,3.80
2019-04-22T12:18:43.094Z,3.30
2019-04-22T12:21:13.181Z,3.20
2019-04-22T12:23:43.421Z,3.27
2019-04-22T12:26:16.806Z,3.80
2019-04-22T12:28:44.764Z,2.67
2019-04-22T12:31:15.371Z,3.20
2019-04-22T12:33:45.427Z,3.10
2019-04-22T12:36:15.015Z,3.10
2019-04-22T12:38:45.320Z,3.10
2019-04-22T12:41:15.923Z,4.07
2019-04-22T12:43:45.473Z,3.70
2019-04-22T12:46:14.554Z,2.97
2019-04-22T12:48:45.400Z,3.43
2019-04-22T12:51:15.324Z,3.60
2019-04-22T12:53:46.217Z,2.47
2019-04-22T12:56:17.285Z,3.50
2019-04-22T12:58:47.672Z,3.30
2019-04-22T13:01:17.104Z,2.63
2019-04-22T13:03:46.532Z,3.20
2019-04-22T13:06:15.600Z,3.70
2019-04-22T13:08:45.737Z,3.37
2019-04-22T13:11:19.446Z,3.30
2019-04-22T13:13:46.969Z,3.03
2019-04-22T13:16:17.480Z,3.10
2019-04-22T13:18:53.749Z,3.27
2019-04-22T13:21:18.582Z,3.47
2019-04-22T13:23:48.891Z,3.90
2019-04-22T13:26:18.982Z,3.20
2019-04-22T13:28:49.254Z,3.53
2019-04-22T13:31:20.773Z,3.10
2019-04-22T13:33:52.776Z,3.10
2019-04-22T13:36:23.683Z,3.43
2019-04-22T13:38:53.078Z,2.80
2019-04-22T13:41:32.905Z,4.23
2019-04-22T13:43:54.075Z,3.50
2019-04-22T13:46:26.357Z,3.60
2019-04-22T13:49:24.068Z,3.53
2019-04-22T13:52:00.947Z,3.60
2019-04-22T13:56:49.128Z,2.60
2019-04-22T13:59:10.156Z,2.50
2019-04-22T14:01:42.952Z,3.33
2019-04-22T14:04:34.678Z,2.60
2019-04-22T14:07:05.155Z,2.70
2019-04-22T14:09:35.834Z,2.70
2019-04-22T14:12:07.619Z,3.20
2019-04-22T14:14:38.656Z,2.83
2019-04-22T14:17:07.232Z,3.00
2019-04-22T14:19:36.431Z,2.90
2019-04-22T14:22:07.486Z,3.57
2019-04-22T14:24:36.843Z,2.60
2019-04-22T14:27:22.361Z,2.80
2019-04-22T14:29:37.753Z,2.60
2019-04-22T14:32:14.599Z,2.43
2019-04-22T14:34:38.464Z,3.10
2019-04-22T14:37:07.932Z,2.23
2019-04-22T14:39:37.968Z,2.90
2019-04-22T14:42:28.317Z,2.60
2019-04-22T14:47:32.692Z,2.33
2019-04-22T14:50:00.511Z,2.50
2019-04-22T14:52:38.078Z,2.67
2019-04-22T14:54:51.993Z,2.60
2019-04-22T14:57:12.976Z,2.50
2019-04-22T14:59:42.120Z,3.50
2019-04-22T15:02:11.765Z,3.90
2019-04-22T15:04:41.586Z,2.60
2019-04-22T15:07:12.720Z,2.77
2019-04-22T15:09:42.001Z,2.90
2019-04-22T15:12:20.552Z,2.23
2019-04-22T15:14:41.959Z,2.83
2019-04-22T15:17:36.795Z,2.60
2019-04-22T15:20:27.668Z,3.40
2019-04-22T15:22:56.907Z,3.10
2019-04-22T15:25:26.268Z,2.50
2019-04-22T15:27:55.483Z,3.30
2019-04-22T15:30:25.545Z,2.90
2019-04-22T15:32:54.981Z,2.40
2019-04-22T15:35:25.276Z,2.90
2019-04-22T15:37:55.246Z,3.10
2019-04-22T15:40:24.924Z,2.93
2019-04-22T15:42:55.038Z,2.67
2019-04-22T15:45:25.954Z,2.80
2019-04-22T15:47:55.935Z,2.90
2019-04-22T15:50:26.538Z,3.20
2019-04-22T15:52:58.859Z,3.00
2019-04-22T15:55:27.188Z,2.50
2019-04-22T15:57:57.499Z,2.77
2019-04-22T16:00:38.346Z,2.40
2019-04-22T16:02:57.626Z,2.50
2019-04-22T16:05:28.053Z,3.20
2019-04-22T16:07:57.200Z,2.70
2019-04-22T16:10:26.290Z,2.57
2019-04-22T16:13:05.534Z,2.93
2019-04-22T16:15:26.561Z,2.40
2019-04-22T16:17:56.092Z,2.40
2019-04-22T16:20:26.045Z,2.47
2019-04-22T16:23:20.239Z,2.47
2019-04-22T16:26:09.664Z,2.90
2019-04-22T16:28:39.691Z,2.33
2019-04-22T16:31:09.319Z,2.40
2019-04-22T16:33:41.444Z,2.93
2019-04-22T16:36:10.947Z,2.90
2019-04-22T16:38:40.749Z,2.93
2019-04-22T16:41:10.868Z,2.47
2019-04-22T16:43:40.728Z,3.00
2019-04-22T16:46:11.608Z,2.50
2019-04-22T16:48:40.942Z,2.13
2019-04-22T16:51:10.030Z,2.20
2019-04-22T16:53:39.037Z,2.20
2019-04-22T16:56:08.804Z,2.57
2019-04-22T16:58:38.856Z,2.33
2019-04-22T17:01:14.585Z,1.97
2019-04-22T17:04:02.735Z,1.97
2019-04-22T17:06:35.628Z,2.30
2019-04-22T17:09:08.798Z,2.17
2019-04-22T17:11:38.440Z,2.13
2019-04-22T17:14:07.845Z,2.07
2019-04-22T17:16:36.927Z,2.00
2019-04-22T17:19:06.117Z,2.03
2019-04-22T17:21:35.528Z,2.13
2019-04-22T17:24:05.560Z,2.53
2019-04-22T17:26:34.794Z,2.20
2019-04-22T17:29:06.327Z,2.63
2019-04-22T17:31:34.849Z,2.30
2019-04-22T17:34:04.790Z,2.30
2019-04-22T17:36:34.230Z,2.63
2019-04-22T17:39:21.622Z,2.43
2019-04-22T17:41:55.757Z,2.50
2019-04-22T17:44:41.364Z,2.50
2019-04-22T17:47:23.615Z,2.47
2019-04-22T17:50:05.568Z,7.53
2019-04-22T17:52:32.851Z,6.70
2019-04-22T17:54:56.177Z,5.63
2019-04-22T17:57:32.585Z,2.90
2019-04-22T17:59:58.752Z,3.43
2019-04-22T18:02:26.628Z,2.47
2019-04-22T18:04:52.044Z,2.57
2019-04-22T18:07:49.356Z,2.63
2019-04-22T18:12:43.816Z,2.07
2019-04-22T18:15:10.256Z,3.10
2019-04-22T18:17:43.591Z,2.70
2019-04-22T18:20:04.739Z,2.60
2019-04-22T18:22:32.039Z,2.50
2019-04-22T18:25:04.975Z,2.23
2019-04-22T18:37:46.484Z,2.70
2019-04-22T18:40:14.986Z,2.60
2019-04-22T18:42:45.818Z,2.27
2019-04-22T18:45:29.626Z,2.57
2019-04-22T18:47:44.237Z,2.17
2019-04-22T18:50:24.612Z,2.37
2019-04-22T18:53:17.155Z,2.63
2019-04-22T18:55:47.091Z,2.37
2019-04-22T18:58:16.807Z,2.60
2019-04-22T19:00:36.508Z,2.00
2019-04-22T19:03:14.177Z,2.90
2019-04-22T19:06:02.591Z,2.50
2019-04-22T19:08:30.389Z,2.37
2019-04-22T19:11:08.206Z,2.40
2019-04-22T19:16:19.739Z,3.00
2019-04-22T19:21:08.058Z,2.50
2019-04-22T19:23:43.438Z,2.50
2019-04-22T19:26:15.613Z,2.50
2019-04-22T19:28:41.873Z,2.93
2019-04-22T19:31:14.844Z,2.50
2019-04-22T19:33:40.043Z,2.90
2019-04-22T19:36:14.926Z,2.60
2019-04-22T19:38:34.053Z,3.20
2019-04-22T19:41:20.070Z,2.30
2019-04-22T19:43:46.589Z,2.30
2019-04-22T19:46:17.013Z,2.40
2019-04-22T19:48:50.145Z,3.00
2019-04-22T19:51:25.722Z,2.77
2019-04-22T19:53:46.972Z,2.30
2019-04-22T19:56:11.688Z,2.63
2019-04-22T19:58:42.642Z,3.20
2019-04-22T20:01:44.077Z,2.57
2019-04-22T20:04:40.014Z,2.70
2019-04-22T20:07:08.490Z,2.50
2019-04-22T20:09:46.730Z,2.80
2019-04-22T20:12:11.826Z,2.80
2019-04-22T20:14:41.268Z,2.30
2019-04-22T20:17:09.731Z,2.77
2019-04-22T20:19:50.159Z,2.80
2019-04-22T20:22:12.817Z,2.63
2019-04-22T20:24:30.263Z,3.10
2019-04-22T20:27:18.843Z,2.60
2019-04-22T20:29:49.797Z,2.80
2019-04-22T20:32:20.244Z,2.83
2019-04-22T20:34:55.789Z,2.50
2019-04-22T20:37:22.558Z,2.70
2019-04-22T20:39:57.144Z,3.23
2019-04-22T20:42:43.604Z,3.40
2019-04-22T20:44:55.105Z,3.00
2019-04-22T20:47:17.917Z,3.67
2019-04-22T20:49:56.221Z,2.93
2019-04-22T20:52:36.798Z,3.07
2019-04-22T20:54:57.276Z,2.70
2019-04-22T20:57:33.589Z,2.87
2019-04-22T20:59:55.859Z,3.10
2019-04-22T21:30:10.681Z,3.23
2019-04-22T21:32:45.085Z,3.57
2019-04-22T21:35:29.149Z,3.50
2019-04-22T21:37:51.630Z,3.10
2019-04-22T21:40:22.991Z,3.27
2019-04-22T21:42:54.816Z,3.70
2019-04-22T21:45:17.554Z,3.80
2019-04-22T21:47:57.472Z,3.10
2019-04-22T21:53:02.285Z,3.87
2019-04-22T21:55:36.088Z,3.20
2019-04-22T21:58:12.158Z,3.53
2019-04-22T22:03:23.630Z,3.40
2019-04-22T22:05:46.283Z,4.20
2019-04-22T22:08:30.165Z,3.63
2019-04-22T22:10:51.096Z,3.80
2019-04-22T22:13:25.132Z,4.30
2019-04-22T22:15:53.657Z,3.97
2019-04-22T22:18:21.456Z,3.80
2019-04-22T22:21:13.159Z,3.80
2019-04-22T22:23:34.533Z,3.27
2019-04-22T22:25:55.220Z,3.87
2019-04-22T22:28:48.278Z,3.20
2019-04-22T22:31:08.816Z,3.20
2019-04-22T22:33:28.322Z,4.30
2019-04-22T22:36:01.172Z,3.47
2019-04-22T22:38:31.202Z,3.10
2019-04-22T22:40:43.923Z,4.27
2019-04-22T22:43:24.886Z,2.80
2019-04-22T22:45:52.824Z,3.50
2019-04-22T22:48:41.737Z,2.90
2019-04-22T22:51:05.348Z,3.50
2019-04-22T22:56:13.569Z,3.60
2019-04-22T22:58:42.551Z,3.80
2019-04-22T23:01:04.785Z,3.07
2019-04-22T23:03:51.488Z,3.33
2019-04-22T23:06:21.375Z,3.40
2019-04-22T23:08:46.091Z,3.47
2019-04-22T23:11:11.802Z,3.43
2019-04-22T23:13:47.089Z,3.30
2019-04-22T23:16:04.238Z,3.03
2019-04-22T23:18:27.910Z,3.90
2019-04-22T23:20:59.194Z,3.50
2019-04-22T23:23:48.520Z,3.23
2019-04-22T23:26:45.669Z,3.63
2019-04-22T23:29:25.065Z,3.13
2019-04-22T23:31:52.186Z,3.70
2019-04-22T23:34:26.566Z,3.53
2019-04-22T23:37:21.689Z,4.00
2019-04-22T23:40:06.719Z,4.30
2019-04-22T23:42:28.506Z,3.50
2019-04-22T23:45:07.380Z,3.80
2019-04-22T23:47:26.434Z,3.50
2019-04-22T23:50:01.057Z,3.87
2019-04-22T23:52:43.329Z,3.80
2019-04-22T23:55:14.393Z,4.03
2019-04-22T23:57:48.824Z,3.80
